Time;durP1;ratioP1;P1;durP2;ratioP2;P2;SDS_P1;SDS_P2;PMS_P1;PMS_P2;Temp;Humidity;BMP_temperature;BMP_pressure;BME280_temperature;BME280_humidity;BME280_pressure;Samples;Min_cycle;Max_cycle;Signal;HPM_P1;HPM_P2
2022/04/23 00:02:20;;;;;;;12.65;7.32;;;;;;;12.06;72.56;100398.91;5114561;28;20136;-49
2022/04/23 00:04:48;;;;;;;11.85;8.02;;;;;;;12.06;72.64;100401.63;5115718;28;20512;-48
2022/04/23 00:07:16;;;;;;;12.25;7.93;;;;;;;11.96;73.33;100401.72;5115445;28;20042;-52
2022/04/23 00:09:43;;;;;;;13.10;7.75;;;;;;;11.90;72.77;100399.03;5115501;28;20051;-47
2022/04/23 00:12:11;;;;;;;13.30;8.60;;;;;;;11.94;73.32;100397.34;5124107;27;20104;-47
2022/04/23 00:14:39;;;;;;;10.75;7.05;;;;;;;11.94;72.68;100394.63;5127746;27;20047;-49
2022/04/23 00:17:08;;;;;;;13.98;8.25;;;;;;;11.94;73.16;100399.28;5111289;28;20050;-50
2022/04/23 00:19:36;;;;;;;10.52;8.52;;;;;;;11.95;73.14;100395.44;5101616;28;20053;-44
2022/04/23 00:22:04;;;;;;;15.20;8.57;;;;;;;11.90;72.75;100393.56;5113767;28;20039;-48
2022/04/23 00:24:31;;;;;;;11.18;7.68;;;;;;;11.86;73.21;100397.16;5114846;28;20042;-47
2022/04/23 00:27:00;;;;;;;13.15;8.32;;;;;;;11.83;73.84;100393.03;5115303;28;20052;-46
2022/04/23 00:29:29;;;;;;;12.93;8.85;;;;;;;11.88;73.43;100397.69;5113848;28;20036;-49
2022/04/23 00:31:56;;;;;;;12.02;8.60;;;;;;;11.83;73.78;100395.78;5120891;27;20058;-47
2022/04/23 00:34:26;;;;;;;13.20;9.50;;;;;;;11.83;73.62;100392.25;5114986;28;20039;-47
2022/04/23 00:36:53;;;;;;;16.58;9.30;;;;;;;11.79;74.36;100397.47;5113953;28;20393;-48
2022/04/23 00:39:21;;;;;;;13.68;9.50;;;;;;;11.84;74.23;100391.97;5114724;28;20105;-47
2022/04/23 00:41:51;;;;;;;12.50;9.23;;;;;;;11.83;73.54;100395.78;5112822;28;20405;-48
2022/04/23 00:44:19;;;;;;;12.35;9.00;;;;;;;11.84;74.17;100394.69;5114674;28;20122;-48
2022/04/23 00:46:47;;;;;;;13.77;10.10;;;;;;;11.85;73.74;100399.03;5114661;28;20044;-47
2022/04/23 00:49:15;;;;;;;14.85;9.95;;;;;;;11.79;74.02;100392.00;5114851;28;20043;-48
2022/04/23 00:51:42;;;;;;;14.23;8.98;;;;;;;11.78;74.77;100401.28;5113186;28;20035;-47
2022/04/23 00:54:10;;;;;;;11.60;8.88;;;;;;;11.81;74.80;100405.34;5113644;28;20036;-46
2022/04/23 00:56:39;;;;;;;16.85;10.15;;;;;;;11.80;74.23;100399.09;5114233;28;20040;-46
2022/04/23 00:59:09;;;;;;;13.25;8.77;;;;;;;11.81;74.11;100400.72;5105249;28;20520;-47
2022/04/23 01:01:36;;;;;;;14.10;9.73;;;;;;;11.75;74.60;100406.53;5113986;28;20056;-48
2022/04/23 01:04:05;;;;;;;14.88;10.25;;;;;;;11.73;74.58;100387.69;5113384;28;20040;-48
2022/04/23 01:06:34;;;;;;;14.05;9.73;;;;;;;11.71;75.24;100395.34;5113944;28;20437;-47
2022/04/23 01:09:04;;;;;;;15.40;10.35;;;;;;;11.68;74.67;100391.28;5112399;28;20079;-50
2022/04/23 01:11:32;;;;;;;13.05;9.48;;;;;;;11.65;75.28;100393.78;5113095;28;20048;-47
2022/04/23 01:14:01;;;;;;;15.40;10.30;;;;;;;11.64;75.65;100400.31;5113154;28;20488;-48
2022/04/23 01:16:29;;;;;;;12.98;9.82;;;;;;;11.69;75.42;100392.13;5113761;28;20051;-49
2022/04/23 01:18:56;;;;;;;16.65;10.88;;;;;;;11.64;75.80;100400.31;5113924;28;20378;-49
2022/04/23 01:21:26;;;;;;;13.18;9.85;;;;;;;11.60;76.06;100400.09;5112305;28;20040;-48
2022/04/23 01:23:53;;;;;;;14.38;9.82;;;;;;;11.64;75.84;100394.84;5114339;28;20046;-48
2022/04/23 01:26:26;;;;;;;13.48;9.80;;;;;;;11.64;75.73;100394.84;5112857;28;20038;-48
2022/04/23 01:28:55;;;;;;;17.10;11.45;;;;;;;11.61;76.28;100395.44;5124902;27;20051;-47
2022/04/23 01:31:23;;;;;;;15.68;10.43;;;;;;;11.60;76.42;100404.72;5117694;27;20039;-47
2022/04/23 01:33:51;;;;;;;16.27;11.20;;;;;;;11.54;76.69;100403.13;5112642;28;20078;-48
2022/04/23 01:36:19;;;;;;;17.05;11.07;;;;;;;11.52;76.94;100406.16;5112693;28;20421;-49
2022/04/23 01:38:47;;;;;;;15.70;11.40;;;;;;;11.50;76.55;100400.16;5111498;28;20043;-48
2022/04/23 01:41:15;;;;;;;15.85;11.13;;;;;;;11.48;77.56;100403.19;5121826;27;20508;-47
2022/04/23 01:43:43;;;;;;;17.67;11.63;;;;;;;11.46;77.67;100399.91;5111841;28;20502;-47
2022/04/23 01:46:10;;;;;;;14.45;9.52;;;;;;;11.42;77.67;100398.84;5124043;27;20070;-48
2022/04/23 01:48:38;;;;;;;13.48;10.85;;;;;;;11.45;78.04;100409.22;5113610;28;20044;-46
2022/04/23 01:51:06;;;;;;;15.85;11.43;;;;;;;11.50;77.88;100411.09;5112761;28;20039;-48
2022/04/23 01:53:34;;;;;;;15.18;11.25;;;;;;;11.42;77.65;100409.75;5113347;28;20497;-47
2022/04/23 01:56:01;;;;;;;17.13;12.85;;;;;;;11.44;77.68;100407.56;5112554;28;20118;-50
2022/04/23 01:58:29;;;;;;;17.58;12.35;;;;;;;11.42;78.00;100409.75;5113206;28;20568;-48
2022/04/23 02:00:58;;;;;;;19.98;12.20;;;;;;;11.36;78.38;100410.09;5112881;28;20040;-48
2022/04/23 02:03:26;;;;;;;16.35;12.07;;;;;;;11.39;78.03;100414.97;5113723;28;20108;-48
2022/04/23 02:05:54;;;;;;;15.90;12.70;;;;;;;11.37;78.44;100401.59;5113701;28;20043;-48
2022/04/23 02:08:21;;;;;;;16.95;13.27;;;;;;;11.29;79.01;100410.41;5112215;28;20119;-48
2022/04/23 02:10:49;;;;;;;16.67;12.48;;;;;;;11.22;79.64;100407.19;5113519;28;20044;-48
2022/04/23 02:13:17;;;;;;;16.00;13.18;;;;;;;11.22;79.42;100404.44;5113024;28;20038;-49
2022/04/23 02:15:44;;;;;;;17.40;12.40;;;;;;;11.21;79.79;100408.28;5113435;28;20036;-47
2022/04/23 02:18:14;;;;;;;16.17;12.82;;;;;;;11.25;79.66;100404.69;5114521;28;20135;-47
2022/04/23 02:20:41;;;;;;;20.00;12.07;;;;;;;11.21;79.57;100402.84;5117465;28;20092;-48
2022/04/23 02:23:09;;;;;;;16.45;12.00;;;;;;;11.22;79.59;100407.97;5129582;27;20043;-48
2022/04/23 02:25:37;;;;;;;17.63;12.90;;;;;;;11.20;79.58;100401.19;5135710;27;20053;-48
2022/04/23 02:28:05;;;;;;;18.10;13.55;;;;;;;11.19;80.06;100410.47;5116559;28;20388;-48
2022/04/23 02:30:34;;;;;;;19.55;14.38;;;;;;;11.06;80.53;100406.44;5116219;28;20051;-47
2022/04/23 02:33:02;;;;;;;19.55;13.05;;;;;;;11.01;80.71;100407.28;5115640;28;20044;-48
2022/04/23 02:35:31;;;;;;;17.52;13.38;;;;;;;11.07;80.65;100408.09;5116949;28;20505;-48
2022/04/23 02:38:00;;;;;;;17.42;13.70;;;;;;;11.12;80.23;100413.50;5116456;28;20489;-48
2022/04/23 02:40:28;;;;;;;17.00;13.90;;;;;;;11.09;80.81;100412.16;5117854;28;20063;-48
2022/04/23 02:42:57;;;;;;;18.20;13.98;;;;;;;11.12;80.32;100409.97;5123092;27;20038;-50
2022/04/23 02:45:25;;;;;;;18.52;14.73;;;;;;;11.15;80.70;100414.84;5116218;28;20051;-49
2022/04/23 02:47:55;;;;;;;18.10;13.45;;;;;;;11.12;80.47;100415.44;5118301;27;20051;-46
2022/04/23 02:50:28;;;;;;;18.25;13.95;;;;;;;11.07;80.94;100403.44;5115784;28;20032;-48
2022/04/23 02:52:57;;;;;;;18.98;14.05;;;;;;;11.05;80.84;100405.63;5116788;28;20417;-53
2022/04/23 02:55:26;;;;;;;17.70;12.55;;;;;;;11.04;81.42;100409.47;5117102;28;20078;-49
2022/04/23 02:57:56;;;;;;;21.55;14.82;;;;;;;11.01;81.61;100406.47;5116955;27;20047;-49
2022/04/23 03:00:24;;;;;;;16.85;12.38;;;;;;;11.07;81.27;100398.00;5123162;27;20562;-45
2022/04/23 03:02:52;;;;;;;16.48;13.32;;;;;;;11.12;81.42;100397.16;5115159;28;20040;-49
2022/04/23 03:05:22;;;;;;;18.50;14.50;;;;;;;11.13;81.26;100397.97;5117049;28;20040;-49
2022/04/23 03:07:50;;;;;;;18.90;14.38;;;;;;;11.14;80.90;100388.69;5117106;28;20045;-49
2022/04/23 03:10:18;;;;;;;19.85;14.13;;;;;;;11.12;81.42;100399.06;5116221;28;20035;-48
2022/04/23 03:12:46;;;;;;;18.35;13.43;;;;;;;11.03;82.04;100385.19;5123696;27;20042;-46
2022/04/23 03:15:16;;;;;;;22.50;14.77;;;;;;;10.93;82.26;100394.25;5116730;28;20067;-49
2022/04/23 03:17:45;;;;;;;16.63;12.52;;;;;;;10.99;82.74;100398.59;5116026;27;20051;-46
2022/04/23 03:20:14;;;;;;;19.85;15.40;;;;;;;11.08;81.93;100394.16;5122077;27;20509;-45
2022/04/23 03:22:43;;;;;;;17.42;13.45;;;;;;;11.11;81.87;100391.97;5115768;28;20400;-49
2022/04/23 03:25:11;;;;;;;21.30;14.02;;;;;;;11.12;81.72;100391.69;5115426;28;20047;-47
2022/04/23 03:27:39;;;;;;;21.63;15.30;;;;;;;11.03;81.81;100393.38;5115178;28;20127;-48
2022/04/23 03:30:07;;;;;;;19.55;15.02;;;;;;;10.99;82.63;100384.97;5113785;28;20382;-49
2022/04/23 03:32:35;;;;;;;15.00;11.70;;;;;;;11.02;82.59;100389.03;5116149;28;20524;-49
2022/04/23 03:35:05;;;;;;;20.40;14.38;;;;;;;10.97;82.24;100386.34;5114908;28;20036;-48
2022/04/23 03:37:33;;;;;;;21.55;16.17;;;;;;;10.84;82.96;100394.00;5115438;28;20036;-48
2022/04/23 03:40:05;;;;;;;19.55;15.27;;;;;;;10.85;83.42;100383.94;5115281;28;20075;-49
2022/04/23 03:42:34;;;;;;;18.85;14.93;;;;;;;10.88;82.71;100384.19;5116211;28;20040;-49
2022/04/23 03:45:04;;;;;;;19.73;15.90;;;;;;;10.85;83.33;100383.94;5114781;28;20496;-52
2022/04/23 03:47:32;;;;;;;18.67;14.35;;;;;;;10.83;83.46;100391.59;5113692;28;20048;-49
2022/04/23 03:50:05;;;;;;;17.75;14.07;;;;;;;10.85;83.66;100383.94;5115620;28;20043;-49
2022/04/23 03:52:33;;;;;;;21.33;15.50;;;;;;;10.84;83.83;100385.03;5097823;28;20054;-49
2022/04/23 03:55:01;;;;;;;18.10;13.82;;;;;;;10.82;84.01;100376.31;5114817;28;20129;-50
2022/04/23 03:57:29;;;;;;;17.55;13.52;;;;;;;10.82;83.88;100374.44;5114552;28;20399;-49
2022/04/23 03:59:56;;;;;;;17.50;13.75;;;;;;;10.82;84.27;100379.88;5115303;28;20039;-47
2022/04/23 04:02:24;;;;;;;17.85;15.07;;;;;;;10.90;83.07;100375.75;5115830;28;20152;-49
2022/04/23 04:04:52;;;;;;;19.77;14.73;;;;;;;10.88;83.60;100378.75;5115667;28;20043;-47
2022/04/23 04:07:20;;;;;;;19.73;15.23;;;;;;;10.82;83.37;100368.97;5114245;28;20046;-46
2022/04/23 04:09:48;;;;;;;18.15;15.32;;;;;;;10.75;83.88;100373.91;5115235;28;20040;-46
2022/04/23 04:12:15;;;;;;;19.25;15.48;;;;;;;10.70;84.69;100376.66;5134752;27;20040;-50
2022/04/23 04:14:45;;;;;;;21.13;15.10;;;;;;;10.73;84.41;100375.28;5134721;27;20393;-47
2022/04/23 04:17:15;;;;;;;17.25;14.77;;;;;;;10.73;84.44;100372.56;5123484;27;20040;-47
2022/04/23 04:19:43;;;;;;;17.60;14.25;;;;;;;10.71;84.63;100372.84;5096377;28;20036;-50
2022/04/23 04:22:10;;;;;;;18.77;15.95;;;;;;;10.65;84.72;100369.34;5114064;28;20047;-47
2022/04/23 04:24:39;;;;;;;19.38;16.05;;;;;;;10.61;85.22;100368.25;5113993;28;20127;-47
2022/04/23 04:27:07;;;;;;;22.15;15.75;;;;;;;10.65;85.40;100380.22;5124922;27;20048;-48
2022/04/23 04:29:35;;;;;;;20.00;16.48;;;;;;;10.68;85.37;100369.84;5113711;28;20409;-48
2022/04/23 04:32:03;;;;;;;21.15;17.23;;;;;;;10.69;84.77;100374.22;5113701;28;20054;-50
2022/04/23 04:34:31;;;;;;;19.65;15.63;;;;;;;10.68;84.94;100370.69;5133364;27;20126;-48
2022/04/23 04:37:06;;;;;;;16.77;13.43;;;;;;;10.76;84.54;100363.84;5135519;27;20123;-47
2022/04/23 04:39:38;;;;;;;21.33;16.50;;;;;;;10.71;84.90;100361.94;5117846;27;20374;-48
2022/04/23 04:42:06;;;;;;;19.77;14.57;;;;;;;10.71;84.75;100361.13;5114312;28;20035;-48
2022/04/23 04:44:35;;;;;;;18.50;14.48;;;;;;;10.67;85.06;100358.13;5128320;27;20051;-47
2022/04/23 04:47:09;;;;;;;20.55;15.63;;;;;;;10.64;85.47;100364.97;5117754;27;20066;-49
2022/04/23 04:49:38;;;;;;;18.90;14.93;;;;;;;10.65;85.31;100369.34;5113672;28;20040;-52
2022/04/23 04:52:06;;;;;;;19.02;15.35;;;;;;;10.59;85.91;100365.00;5111863;28;20043;-51
2022/04/23 04:54:34;;;;;;;17.05;13.15;;;;;;;10.57;86.07;100360.91;5114138;28;20453;-51
2022/04/23 04:57:03;;;;;;;20.05;15.07;;;;;;;10.57;86.36;100375.34;5114325;28;20449;-52
2022/04/23 04:59:31;;;;;;;18.80;14.95;;;;;;;10.62;86.04;100366.34;5113597;28;20058;-48
2022/04/23 05:02:00;;;;;;;18.05;15.02;;;;;;;10.68;85.90;100375.28;5113247;28;20039;-49
2022/04/23 05:04:28;;;;;;;18.80;14.77;;;;;;;10.66;85.98;100376.41;5114618;28;20039;-52
2022/04/23 05:06:56;;;;;;;19.25;14.48;;;;;;;10.77;85.43;100377.16;5113934;28;20121;-51
2022/04/23 05:09:24;;;;;;;19.35;16.48;;;;;;;10.77;85.40;100379.88;5113433;28;20489;-48
2022/04/23 05:11:52;;;;;;;20.10;16.13;;;;;;;10.69;85.42;100385.13;5113673;28;20423;-51
2022/04/23 05:14:19;;;;;;;19.33;14.63;;;;;;;10.65;85.97;100380.22;5114183;28;20032;-47
2022/04/23 05:16:47;;;;;;;18.98;16.10;;;;;;;10.68;85.55;100384.31;5114345;28;20040;-49
2022/04/23 05:19:14;;;;;;;22.42;15.70;;;;;;;10.66;85.89;100373.69;5113703;28;20039;-46
2022/04/23 05:21:43;;;;;;;18.77;15.07;;;;;;;10.69;85.70;100372.31;5104068;28;20050;-48
2022/04/23 05:24:11;;;;;;;19.15;15.43;;;;;;;10.75;85.94;100373.09;5114193;28;20122;-47
2022/04/23 05:26:38;;;;;;;20.05;15.80;;;;;;;10.75;85.69;100381.25;5113848;28;20046;-48
2022/04/23 05:29:06;;;;;;;20.23;16.73;;;;;;;10.73;85.89;100381.56;5109623;28;20050;-50
2022/04/23 05:31:33;;;;;;;16.92;14.20;;;;;;;10.73;85.53;100378.03;5112732;28;20443;-46
2022/04/23 05:34:01;;;;;;;19.13;14.35;;;;;;;10.71;85.68;100385.66;5093707;28;20130;-47
2022/04/23 05:36:29;;;;;;;22.63;17.08;;;;;;;10.69;86.01;100379.66;5099602;28;20028;-47
2022/04/23 05:38:57;;;;;;;22.63;17.13;;;;;;;10.69;86.44;100393.28;5113615;28;20042;-48
2022/04/23 05:41:24;;;;;;;22.25;17.10;;;;;;;10.71;86.55;100380.22;5121701;27;20046;-49
2022/04/23 05:43:52;;;;;;;23.80;17.02;;;;;;;10.73;86.37;100380.75;5132941;27;20046;-49
2022/04/23 05:46:20;;;;;;;21.85;17.00;;;;;;;10.72;86.41;100385.34;5126570;27;20047;-51
2022/04/23 05:48:47;;;;;;;18.60;16.42;;;;;;;10.67;86.73;100388.09;5093265;28;20052;-47
2022/04/23 05:51:15;;;;;;;24.42;17.73;;;;;;;10.66;86.75;100381.84;5098651;28;20138;-48
2022/04/23 05:53:43;;;;;;;21.55;17.35;;;;;;;10.76;86.67;100369.28;5113091;28;20122;-47
2022/04/23 05:56:10;;;;;;;20.05;17.15;;;;;;;10.83;86.09;100376.03;5113162;28;20036;-47
2022/04/23 05:58:38;;;;;;;20.75;16.42;;;;;;;10.88;85.29;100372.47;5113507;28;20066;-47
2022/04/23 06:01:06;;;;;;;20.00;17.27;;;;;;;10.89;84.99;100382.28;5112536;28;20044;-45
2022/04/23 06:03:33;;;;;;;22.65;17.13;;;;;;;10.96;84.70;100385.50;5112324;28;20039;-50
2022/04/23 06:06:01;;;;;;;21.35;17.60;;;;;;;10.93;85.01;100380.63;5113330;28;20117;-48
2022/04/23 06:08:29;;;;;;;19.95;17.70;;;;;;;10.89;85.57;100390.44;5113354;28;20154;-51
2022/04/23 06:10:56;;;;;;;20.88;17.55;;;;;;;10.88;85.33;100388.84;5115923;28;20401;-48
2022/04/23 06:13:24;;;;;;;19.23;15.65;;;;;;;10.93;85.48;100386.06;5134516;27;20053;-49
2022/04/23 06:15:52;;;;;;;23.33;17.35;;;;;;;10.97;84.71;100383.63;5125367;27;20048;-48
2022/04/23 06:18:19;;;;;;;22.27;16.83;;;;;;;10.96;84.99;100380.06;5113741;28;20039;-49
2022/04/23 06:20:47;;;;;;;21.08;17.40;;;;;;;11.02;84.89;100378.94;5113062;28;20390;-52
2022/04/23 06:23:14;;;;;;;20.98;17.60;;;;;;;11.02;85.11;100372.69;5113753;28;20048;-53
2022/04/23 06:25:42;;;;;;;18.73;15.20;;;;;;;11.02;84.91;100373.50;5113448;28;20043;-51
2022/04/23 06:28:10;;;;;;;23.13;16.80;;;;;;;11.04;84.81;100365.84;5112409;28;20051;-52
2022/04/23 06:30:38;;;;;;;21.70;17.65;;;;;;;11.04;84.44;100371.31;5112961;28;20047;-51
2022/04/23 06:33:06;;;;;;;19.35;16.10;;;;;;;11.06;84.72;100373.72;5112123;28;20093;-50
2022/04/23 06:35:34;;;;;;;18.08;15.88;;;;;;;11.15;84.49;100368.50;5113044;28;20036;-51
2022/04/23 06:38:02;;;;;;;19.98;16.00;;;;;;;11.14;84.39;100370.41;5113365;28;20455;-49
2022/04/23 06:40:30;;;;;;;20.17;16.95;;;;;;;11.17;83.87;100374.50;5112961;28;20477;-48
2022/04/23 06:42:58;;;;;;;19.08;17.02;;;;;;;11.18;84.63;100373.38;5113485;28;20405;-48
2022/04/23 06:45:33;;;;;;;28.25;17.52;;;;;;;11.19;84.44;100362.19;5112006;28;20047;-51
2022/04/23 06:48:04;;;;;;;20.10;14.93;;;;;;;11.24;83.76;100364.88;5112423;28;20130;-50
2022/04/23 06:50:35;;;;;;;19.13;16.42;;;;;;;11.29;84.03;100370.31;5107327;28;20035;-50
2022/04/23 06:53:04;;;;;;;19.80;17.23;;;;;;;11.31;83.66;100370.03;5112084;28;20051;-51
2022/04/23 06:55:32;;;;;;;22.00;17.83;;;;;;;11.32;83.48;100370.84;5112563;28;20050;-46
2022/04/23 06:57:59;;;;;;;21.10;17.30;;;;;;;11.38;83.23;100369.72;5112869;28;20135;-48
2022/04/23 07:00:27;;;;;;;22.95;17.33;;;;;;;11.43;84.20;100366.94;5112780;28;20051;-49
2022/04/23 07:02:59;;;;;;;23.52;18.67;;;;;;;11.46;83.33;100367.16;5112351;28;20043;-51
2022/04/23 07:05:27;;;;;;;22.92;18.10;;;;;;;11.50;83.23;100368.25;5120980;27;20040;-51
2022/04/23 07:08:01;;;;;;;22.67;18.70;;;;;;;11.51;82.35;100356.22;5132702;27;20044;-52
2022/04/23 07:10:30;;;;;;;23.75;17.77;;;;;;;11.57;82.21;100356.16;5117929;27;20051;-49
2022/04/23 07:12:58;;;;;;;25.08;19.50;;;;;;;11.61;82.43;100368.16;5127899;27;20031;-54
2022/04/23 07:15:28;;;;;;;21.60;17.38;;;;;;;11.64;81.29;100362.09;5133549;27;20045;-52
2022/04/23 07:17:56;;;;;;;22.80;18.05;;;;;;;11.67;81.65;100361.56;5078516;28;20044;-49
2022/04/23 07:20:24;;;;;;;23.42;18.92;;;;;;;11.70;81.38;100361.78;5109488;28;20044;-53
2022/04/23 07:25:42;;;;;;;24.70;18.08;;;;;;;11.79;80.08;100359.25;5095492;28;20051;-48
2022/04/23 07:28:10;;;;;;;22.13;17.77;;;;;;;11.85;80.93;100357.28;5122406;27;20046;-48
2022/04/23 07:30:38;;;;;;;22.85;18.38;;;;;;;11.89;80.48;100353.72;5115001;28;20044;-48
2022/04/23 07:33:05;;;;;;;21.50;18.85;;;;;;;11.94;80.10;100359.13;5127647;27;20047;-47
2022/04/23 07:38:20;;;;;;;;;;;;;;;12.02;79.14;100345.94;5117010;28;20048;-46
2022/04/23 07:40:48;;;;;;;24.77;19.20;;;;;;;12.07;78.80;100351.34;5116217;28;19945;-50
2022/04/23 07:43:17;;;;;;;23.23;19.35;;;;;;;12.12;77.65;100348.56;5115220;28;20044;-53
2022/04/23 07:45:46;;;;;;;21.80;18.55;;;;;;;12.16;77.04;100349.63;5097455;28;20047;-51
2022/04/23 07:48:14;;;;;;;24.00;18.67;;;;;;;12.20;76.80;100350.69;5115659;27;20067;-52
2022/04/23 07:50:43;;;;;;;22.27;17.90;;;;;;;12.25;77.06;100345.16;5136545;27;20104;-51
2022/04/23 07:53:12;;;;;;;23.90;20.98;;;;;;;12.26;76.41;100341.31;5131439;27;20459;-48
2022/04/23 07:55:40;;;;;;;22.58;19.50;;;;;;;12.28;77.06;100349.22;5132775;27;20155;-47
2022/04/23 07:58:11;;;;;;;38.65;23.42;;;;;;;12.30;76.69;100344.28;5115775;27;20071;-47
2022/04/23 08:00:40;;;;;;;24.90;21.02;;;;;;;12.38;77.18;100343.63;5115634;28;20564;-47
2022/04/23 08:03:09;;;;;;;24.60;21.05;;;;;;;12.42;75.45;100338.41;5126866;27;20040;-47
2022/04/23 08:05:37;;;;;;;24.63;16.35;;;;;;;12.43;75.42;100337.28;5126621;27;20123;-47
2022/04/23 08:08:05;;;;;;;25.90;19.42;;;;;;;12.47;75.72;100343.81;5115150;28;20039;-48
2022/04/23 08:10:34;;;;;;;24.95;19.92;;;;;;;12.51;75.67;100333.94;5127882;27;20043;-48
2022/04/23 08:13:01;;;;;;;24.85;19.65;;;;;;;12.57;74.69;100335.47;5114128;28;20044;-54
2022/04/23 08:15:29;;;;;;;28.45;16.45;;;;;;;12.63;74.46;100336.22;5115623;28;20062;-46
2022/04/23 08:17:57;;;;;;;34.78;28.73;;;;;;;12.67;73.86;100329.06;5115243;28;20042;-51
2022/04/23 08:20:24;;;;;;;27.40;17.95;;;;;;;12.74;75.23;100324.03;5117760;27;20055;-48
2022/04/23 08:22:52;;;;;;;29.60;19.08;;;;;;;12.78;73.43;100312.22;5131532;27;20527;-46
2022/04/23 08:25:20;;;;;;;25.42;19.70;;;;;;;12.81;73.14;100323.69;5115181;28;20409;-48
2022/04/23 08:27:52;;;;;;;23.33;16.85;;;;;;;12.83;73.51;100310.53;5114633;28;20039;-49
2022/04/23 08:30:39;;;;;;;23.45;17.75;;;;;;;12.89;73.36;100314.81;5121377;27;20046;-50
2022/04/23 08:33:07;;;;;;;27.85;14.85;;;;;;;12.95;73.19;100319.09;5114284;28;20034;-48
2022/04/23 08:35:36;;;;;;;27.10;17.92;;;;;;;12.98;71.76;100313.03;5114021;28;20432;-47
2022/04/23 08:38:04;;;;;;;23.30;19.00;;;;;;;12.98;71.20;100313.84;5113419;28;20047;-50
2022/04/23 08:40:36;;;;;;;24.17;20.35;;;;;;;13.05;71.31;100313.47;5131286;27;20047;-51
2022/04/23 08:43:04;;;;;;;23.27;17.75;;;;;;;13.12;71.17;100313.91;5114894;27;20062;-51
2022/04/23 08:45:32;;;;;;;25.40;16.13;;;;;;;13.22;71.15;100307.47;5114776;28;20040;-50
2022/04/23 08:48:00;;;;;;;22.30;16.58;;;;;;;13.23;70.63;100320.03;5113048;28;20063;-48
2022/04/23 08:50:29;;;;;;;22.00;19.52;;;;;;;13.33;71.85;100313.63;5112447;28;20044;-50
2022/04/23 08:52:57;;;;;;;23.58;18.83;;;;;;;13.42;70.72;100307.16;5114228;28;20052;-49
2022/04/23 08:55:26;;;;;;;23.60;19.23;;;;;;;13.39;70.39;100323.34;5115952;27;20417;-50
2022/04/23 08:57:54;;;;;;;23.25;18.65;;;;;;;13.36;69.80;100323.97;5112503;28;20047;-51
2022/04/23 09:00:22;;;;;;;23.70;18.23;;;;;;;13.26;70.00;100330.38;5114233;28;20072;-50
2022/04/23 09:02:50;;;;;;;23.52;19.08;;;;;;;13.25;70.20;100322.47;5130177;27;20043;-55
2022/04/23 09:05:19;;;;;;;24.40;20.63;;;;;;;13.18;70.54;100323.66;5122093;27;20396;-53
2022/04/23 09:07:53;;;;;;;22.35;19.25;;;;;;;13.16;70.85;100331.34;5129686;27;20112;-50
2022/04/23 09:10:26;;;;;;;28.15;20.25;;;;;;;13.16;71.03;100331.34;5114501;28;20058;-51
2022/04/23 09:12:56;;;;;;;24.90;21.15;;;;;;;13.15;70.95;100323.44;5118820;27;20041;-54
2022/04/23 09:24:06;;;;;;;;;;;;;;;13.37;69.66;100320.94;5134255;27;20043;-51
2022/04/23 09:26:34;;;;;;;24.35;19.15;;;;;;;13.47;70.42;100313.63;5129079;27;19919;-49
2022/04/23 09:29:14;;;;;;;28.08;20.13;;;;;;;13.51;69.63;100320.94;5094331;28;20406;-52
2022/04/23 09:31:42;;;;;;;21.67;16.48;;;;;;;13.54;69.24;100325.84;5111737;28;20047;-52
2022/04/23 09:34:17;;;;;;;21.02;16.98;;;;;;;13.55;69.59;100315.72;5114110;28;20132;-49
2022/04/23 09:37:00;;;;;;;24.90;18.63;;;;;;;13.59;69.62;100316.75;5114021;28;20166;-52
2022/04/23 09:39:31;;;;;;;25.90;22.15;;;;;;;13.71;69.09;100325.28;5113687;28;20036;-51
2022/04/23 09:42:11;;;;;;;24.88;20.00;;;;;;;13.76;69.07;100316.16;5111431;28;20097;-48
2022/04/23 09:44:39;;;;;;;25.75;20.58;;;;;;;13.76;68.94;100321.66;5132036;27;20122;-54
2022/04/23 09:47:07;;;;;;;26.10;20.80;;;;;;;13.79;68.52;100323.78;5135350;27;20054;-49
2022/04/23 09:49:35;;;;;;;22.83;17.67;;;;;;;13.81;68.49;100325.09;5128285;27;20118;-49
2022/04/23 09:52:04;;;;;;;25.30;17.90;;;;;;;13.79;68.14;100321.84;5112645;28;20046;-49
2022/04/23 09:54:33;;;;;;;26.42;18.55;;;;;;;13.78;68.47;100325.69;5111741;28;21079;-48
2022/04/23 09:57:02;;;;;;;21.58;16.83;;;;;;;13.84;68.71;100334.63;5112955;28;20393;-50
2022/04/23 09:59:30;;;;;;;42.15;23.90;;;;;;;13.90;68.25;100332.59;5113228;28;20477;-50
2022/04/23 10:01:58;;;;;;;27.13;21.75;;;;;;;13.95;67.86;100319.63;5113409;28;20047;-49
2022/04/23 10:04:27;;;;;;;30.35;21.17;;;;;;;14.05;67.28;100322.19;5113350;28;20432;-47
2022/04/23 10:06:56;;;;;;;27.67;21.42;;;;;;;14.13;66.71;100319.84;5121388;28;20508;-48
2022/04/23 10:09:28;;;;;;;25.55;20.67;;;;;;;14.18;66.52;100319.75;5134131;27;20137;-51
2022/04/23 10:12:02;;;;;;;26.17;21.70;;;;;;;14.21;65.84;100335.56;5112921;28;20051;-50
2022/04/23 10:14:46;;;;;;;23.52;20.13;;;;;;;14.23;66.54;100322.38;5113475;28;20126;-48
2022/04/23 10:17:20;;;;;;;27.10;21.88;;;;;;;14.31;66.58;100315.38;5112392;28;20051;-52
2022/04/23 10:19:48;;;;;;;24.80;20.52;;;;;;;14.30;66.03;100311.00;5112482;28;20127;-51
2022/04/23 10:22:37;;;;;;;24.15;20.70;;;;;;;14.43;65.87;100305.53;5111517;28;20047;-50
2022/04/23 10:25:29;;;;;;;23.02;19.52;;;;;;;14.51;65.46;100297.69;5113386;28;20504;-51
2022/04/23 10:27:58;;;;;;;24.27;20.23;;;;;;;14.54;65.03;100305.34;5111111;28;20494;-48
2022/04/23 10:30:27;;;;;;;28.60;22.80;;;;;;;14.60;65.13;100302.19;5111883;28;20050;-52
2022/04/23 10:32:55;;;;;;;26.90;21.83;;;;;;;14.65;64.44;100298.50;5124376;28;20082;-50
2022/04/23 10:35:22;;;;;;;23.77;20.17;;;;;;;14.66;64.17;100295.44;5126102;27;20102;-51
2022/04/23 10:37:54;;;;;;;25.70;20.67;;;;;;;14.64;64.12;100292.19;4409551;28;10000146;-52
2022/04/23 10:40:22;;;;;;;25.73;22.73;;;;;;;14.63;64.76;100296.06;5131254;27;20074;-47
2022/04/23 10:43:23;;;;;;;26.80;23.83;;;;;;;14.65;65.14;100293.84;5088470;28;20043;-50
2022/04/23 10:45:50;;;;;;;28.45;22.70;;;;;;;14.74;63.98;100287.59;5087797;28;20043;-49
2022/04/23 10:48:24;;;;;;;29.13;22.27;;;;;;;14.85;63.34;100287.06;5133241;27;20485;-49
2022/04/23 10:51:05;;;;;;;25.15;18.25;;;;;;;14.93;63.72;100287.44;5123196;27;20131;-50
2022/04/23 10:53:38;;;;;;;29.20;21.98;;;;;;;14.98;64.17;100295.56;5126106;27;20122;-50
2022/04/23 10:56:14;;;;;;;25.23;21.80;;;;;;;15.13;62.65;100292.47;5132315;27;20043;-47
2022/04/23 10:58:42;;;;;;;28.33;22.73;;;;;;;15.16;62.50;100296.53;5113976;28;20052;-49
2022/04/23 11:01:23;;;;;;;21.63;18.42;;;;;;;15.14;62.59;100294.06;5094840;28;20117;-50
2022/04/23 11:03:57;;;;;;;23.90;20.80;;;;;;;15.16;62.70;100286.34;5113759;28;20071;-53
2022/04/23 11:12:23;;;;;;;25.80;22.85;;;;;;;15.39;60.76;100292.63;5112437;28;20047;-51
2022/04/23 11:14:55;;;;;;;24.33;20.67;;;;;;;15.39;60.66;100284.38;5113596;28;20143;-48
2022/04/23 11:17:32;;;;;;;27.10;22.73;;;;;;;15.32;60.38;100282.09;5112986;27;20047;-48
2022/04/23 11:20:00;;;;;;;26.45;21.90;;;;;;;15.26;60.63;100280.59;5113085;28;20501;-49
2022/04/23 11:22:28;;;;;;;21.45;16.45;;;;;;;15.29;62.35;100273.66;5113134;28;20044;-48
2022/04/23 11:24:57;;;;;;;26.30;22.77;;;;;;;15.38;61.37;100271.78;5113221;28;20043;-50
2022/04/23 11:27:32;;;;;;;25.88;21.20;;;;;;;15.42;61.03;100272.00;5110831;28;20044;-51
2022/04/23 11:30:00;;;;;;;25.77;20.38;;;;;;;15.46;60.62;100267.47;5112991;28;20043;-48
2022/04/23 11:32:29;;;;;;;28.17;23.42;;;;;;;15.58;59.86;100267.69;5113299;28;20066;-50
2022/04/23 11:34:59;;;;;;;27.67;22.92;;;;;;;15.57;59.96;100271.59;5112310;28;20055;-45
2022/04/23 11:37:31;;;;;;;30.70;22.33;;;;;;;15.51;59.89;100259.09;5111863;28;20117;-51
2022/04/23 11:40:13;;;;;;;24.83;19.10;;;;;;;15.51;61.36;100264.59;5112349;28;20039;-49